EGBB METAR and TAF | Updated Today

EGBB METAR

Birmingham International Airport

Observation time: 1:36 hr. ago

EGBB 291950Z 02004KT CAVOK 11/09 Q1009

Need help? Read our tutorial on how to read METARs or read the parsed version below.

Birmingham International Airport (EGBB) METAR

  • Weather conditions on Thu, 29 Sep 2022 19:50:00 +0000 (1:36 hr. ago):
  • Present conditions: Dry
  • Clouds: Clear skies
  • Visibility: Greater than 10 km
  • Wind: 20 degrees at 4 knots
  • Temperature: 11 celsius
  • Dew point: 9 celsius
  • Pressure: 1009 millibars
  • Remarks: None


Useful to know...

EGBB TAF

Birmingham International Airport

TAF EGBB 151700Z 1518/1618 33010KT 9999 FEW045
Observation time: 340:26 hr. ago
Need help? Read our tutorial on how to read TAFs or read the parsed version below.

Parsed version of TAF for Birmingham International Airport (EGBB)

  • From 15 September at 18:00 UTC, to day 16 of the month at 18:00 UTC
  • Clouds: A few at 1372 meters
  • Visibility: Greater than 10 km
  • Wind: 330 degrees at 10